Cape Hatteras National Seash, North Carolina
Current Conditions -  °F | °C
As of 9:55 PM on Tuesday 25 Nov 2014 (Local Time) from KMQI Reporting Station
Drizzle Drizzle  
Wind Chill: 56°   Ceiling: 9000
Heat Index: 56°   Visibility: 10mi
Dew Point: 55°   Wind: 5mph
Humidity: 97%   Direction: 20°NNE
Pressure: 30.1"   Gusts: NA
Location:  35.8834°N, 75.6616°W
Report Text: KMQI 260255Z AUTO 02004KT 10SM -DZ SCT028 SCT041 OVC090 13/13 A3010 RMK AO2 P0003 60003 T01330128
Loading
Personal Weather Stations






























Interactive Weather Map New forecast layout! Learn more

10-Day Weather Forecast

Advertisements
Track Severe Weather on mobile